sensor_id;sensor_type;location;lat;lon;timestamp;pressure;altitude;pressure_sealevel;temperature;humidity
967;BME280;56108;48.730;9.304;2023-04-04T00:01:45;98340.47;;;-0.51;73.44
967;BME280;56108;48.730;9.304;2023-04-04T00:03:56;98329.22;;;-0.57;73.25
967;BME280;56108;48.730;9.304;2023-04-04T00:06:04;98325.69;;;-0.56;72.87
967;BME280;56108;48.730;9.304;2023-04-04T00:08:12;98328.34;;;-0.59;72.99
967;BME280;56108;48.730;9.304;2023-04-04T00:10:20;98330.16;;;-0.64;73.04
967;BME280;56108;48.730;9.304;2023-04-04T00:12:28;98319.75;;;-0.68;73.93
967;BME280;56108;48.730;9.304;2023-04-04T00:14:36;98329.34;;;-0.67;72.33
967;BME280;56108;48.730;9.304;2023-04-04T00:16:44;98316.28;;;-0.69;72.20
967;BME280;56108;48.730;9.304;2023-04-04T00:18:55;98308.44;;;-0.67;72.00
967;BME280;56108;48.730;9.304;2023-04-04T00:21:04;98313.66;;;-0.67;72.19
967;BME280;56108;48.730;9.304;2023-04-04T00:23:11;98317.22;;;-0.73;71.78
967;BME280;56108;48.730;9.304;2023-04-04T00:25:19;98314.59;;;-0.71;70.98
967;BME280;56108;48.730;9.304;2023-04-04T00:27:27;98320.56;;;-0.63;69.84
967;BME280;56108;48.730;9.304;2023-04-04T00:29:35;98310.25;;;-0.72;70.19
967;BME280;56108;48.730;9.304;2023-04-04T00:31:44;98314.66;;;-0.77;70.25
967;BME280;56108;48.730;9.304;2023-04-04T00:33:52;98310.22;;;-0.71;69.40
967;BME280;56108;48.730;9.304;2023-04-04T00:36:03;98311.19;;;-0.80;69.78
967;BME280;56108;48.730;9.304;2023-04-04T00:38:13;98303.38;;;-0.81;69.73
967;BME280;56108;48.730;9.304;2023-04-04T00:40:22;98306.88;;;-0.82;69.29
967;BME280;56108;48.730;9.304;2023-04-04T00:42:32;98306.06;;;-0.87;69.55
967;BME280;56108;48.730;9.304;2023-04-04T00:44:41;98310.38;;;-0.85;69.64
967;BME280;56108;48.730;9.304;2023-04-04T00:46:50;98300.03;;;-0.91;69.90
967;BME280;56108;48.730;9.304;2023-04-04T00:49:00;98306.16;;;-0.93;70.10
967;BME280;56108;48.730;9.304;2023-04-04T00:51:11;98304.41;;;-0.94;70.38
967;BME280;56108;48.730;9.304;2023-04-04T00:53:19;98305.16;;;-0.85;69.06
967;BME280;56108;48.730;9.304;2023-04-04T00:55:27;98306.84;;;-0.81;68.48
967;BME280;56108;48.730;9.304;2023-04-04T00:57:36;98295.66;;;-0.89;69.34
967;BME280;56108;48.730;9.304;2023-04-04T00:59:45;98298.38;;;-0.99;69.72
967;BME280;56108;48.730;9.304;2023-04-04T01:01:52;98297.50;;;-0.98;71.39
967;BME280;56108;48.730;9.304;2023-04-04T01:04:01;98292.34;;;-1.03;71.22
967;BME280;56108;48.730;9.304;2023-04-04T01:06:13;98296.78;;;-1.11;70.94
967;BME280;56108;48.730;9.304;2023-04-04T01:08:25;98289.94;;;-1.20;72.01
967;BME280;56108;48.730;9.304;2023-04-04T01:10:36;98297.81;;;-1.26;72.13
967;BME280;56108;48.730;9.304;2023-04-04T01:12:46;98294.31;;;-1.23;72.06
967;BME280;56108;48.730;9.304;2023-04-04T01:14:55;98284.75;;;-1.24;74.47
967;BME280;56108;48.730;9.304;2023-04-04T01:17:04;98286.69;;;-1.40;74.82
967;BME280;56108;48.730;9.304;2023-04-04T01:19:16;98288.47;;;-1.47;74.68
967;BME280;56108;48.730;9.304;2023-04-04T01:21:29;98280.69;;;-1.51;74.77
967;BME280;56108;48.730;9.304;2023-04-04T01:23:46;98283.38;;;-1.56;75.00
967;BME280;56108;48.730;9.304;2023-04-04T01:26:12;98285.91;;;-1.51;75.35
967;BME280;56108;48.730;9.304;2023-04-04T01:28:20;98281.69;;;-1.62;76.11
967;BME280;56108;48.730;9.304;2023-04-04T01:30:31;98273.00;;;-1.65;76.20
967;BME280;56108;48.730;9.304;2023-04-04T01:32:43;98280.06;;;-1.72;77.45
967;BME280;56108;48.730;9.304;2023-04-04T01:34:58;98274.81;;;-1.72;79.01
967;BME280;56108;48.730;9.304;2023-04-04T01:37:10;98273.91;;;-1.69;78.46
967;BME280;56108;48.730;9.304;2023-04-04T01:39:24;98274.88;;;-1.78;80.57
967;BME280;56108;48.730;9.304;2023-04-04T01:41:38;98277.53;;;-1.81;79.81
967;BME280;56108;48.730;9.304;2023-04-04T01:43:46;98281.81;;;-1.78;77.13
967;BME280;56108;48.730;9.304;2023-04-04T01:45:57;98270.53;;;-1.77;78.01
967;BME280;56108;48.730;9.304;2023-04-04T01:48:06;98276.66;;;-1.81;79.56
967;BME280;56108;48.730;9.304;2023-04-04T01:50:16;98273.97;;;-1.74;77.34
967;BME280;56108;48.730;9.304;2023-04-04T01:52:24;98277.53;;;-1.81;77.42
967;BME280;56108;48.730;9.304;2023-04-04T01:54:33;98276.66;;;-1.83;79.84
967;BME280;56108;48.730;9.304;2023-04-04T01:56:43;98281.94;;;-1.91;78.64
967;BME280;56108;48.730;9.304;2023-04-04T01:58:52;98285.34;;;-1.84;77.54
967;BME280;56108;48.730;9.304;2023-04-04T02:01:01;98280.97;;;-1.79;77.03
967;BME280;56108;48.730;9.304;2023-04-04T02:03:11;98281.88;;;-1.83;77.36
967;BME280;56108;48.730;9.304;2023-04-04T02:05:19;98281.00;;;-1.82;77.54
967;BME280;56108;48.730;9.304;2023-04-04T02:07:28;98282.81;;;-1.87;78.28
967;BME280;56108;48.730;9.304;2023-04-04T02:09:36;98282.84;;;-1.95;78.78
967;BME280;56108;48.730;9.304;2023-04-04T02:11:46;98286.38;;;-2.00;79.58
967;BME280;56108;48.730;9.304;2023-04-04T02:13:54;98285.47;;;-1.95;79.98
967;BME280;56108;48.730;9.304;2023-04-04T02:16:04;98280.31;;;-2.01;79.51
967;BME280;56108;48.730;9.304;2023-04-04T02:18:12;98282.00;;;-1.97;79.16
967;BME280;56108;48.730;9.304;2023-04-04T02:20:20;98284.59;;;-1.95;79.43
967;BME280;56108;48.730;9.304;2023-04-04T02:22:28;98275.00;;;-1.92;79.60
967;BME280;56108;48.730;9.304;2023-04-04T02:24:36;98281.16;;;-1.97;80.97
967;BME280;56108;48.730;9.304;2023-04-04T02:26:47;98274.22;;;-2.04;82.49
967;BME280;56108;48.730;9.304;2023-04-04T02:28:55;98269.09;;;-2.12;83.45
967;BME280;56108;48.730;9.304;2023-04-04T02:31:03;98276.88;;;-2.09;82.00
967;BME280;56108;48.730;9.304;2023-04-04T02:33:11;98276.94;;;-2.14;81.64
967;BME280;56108;48.730;9.304;2023-04-04T02:35:21;98270.81;;;-2.11;81.64
967;BME280;56108;48.730;9.304;2023-04-04T02:37:29;98274.16;;;-1.95;81.49
967;BME280;56108;48.730;9.304;2023-04-04T02:39:38;98284.56;;;-1.94;80.34
967;BME280;56108;48.730;9.304;2023-04-04T02:41:49;98282.88;;;-1.96;80.54
967;BME280;56108;48.730;9.304;2023-04-04T02:43:59;98272.47;;;-2.01;82.47
967;BME280;56108;48.730;9.304;2023-04-04T02:46:09;98268.22;;;-2.11;81.94
967;BME280;56108;48.730;9.304;2023-04-04T02:48:28;98278.63;;;-2.06;81.64
967;BME280;56108;48.730;9.304;2023-04-04T02:50:38;98273.38;;;-2.03;81.27
967;BME280;56108;48.730;9.304;2023-04-04T02:52:49;98279.31;;;-1.89;80.54
967;BME280;56108;48.730;9.304;2023-04-04T02:54:58;98276.72;;;-1.89;79.99
967;BME280;56108;48.730;9.304;2023-04-04T02:57:14;98280.28;;;-1.99;81.03
967;BME280;56108;48.730;9.304;2023-04-04T02:59:22;98276.72;;;-1.89;80.65
967;BME280;56108;48.730;9.304;2023-04-04T03:01:30;98277.66;;;-1.96;80.83
967;BME280;56108;48.730;9.304;2023-04-04T03:03:40;98275.06;;;-1.99;80.78
967;BME280;56108;48.730;9.304;2023-04-04T03:05:49;98274.19;;;-1.97;81.06
967;BME280;56108;48.730;9.304;2023-04-04T03:07:58;98275.09;;;-2.01;80.75
967;BME280;56108;48.730;9.304;2023-04-04T03:10:07;98269.78;;;-1.92;80.26
967;BME280;56108;48.730;9.304;2023-04-04T03:12:19;98265.38;;;-1.88;79.96
967;BME280;56108;48.730;9.304;2023-04-04T03:14:27;98276.75;;;-1.94;80.71
967;BME280;56108;48.730;9.304;2023-04-04T03:16:36;98264.50;;;-1.84;79.69
967;BME280;56108;48.730;9.304;2023-04-04T03:18:44;98267.09;;;-1.84;80.04
967;BME280;56108;48.730;9.304;2023-04-04T03:20:54;98264.31;;;-1.67;78.88
967;BME280;56108;48.730;9.304;2023-04-04T03:23:02;98259.19;;;-1.75;79.43
967;BME280;56108;48.730;9.304;2023-04-04T03:25:11;98267.03;;;-1.78;79.11
967;BME280;56108;48.730;9.304;2023-04-04T03:27:22;98261.91;;;-1.86;80.18
967;BME280;56108;48.730;9.304;2023-04-04T03:29:30;98258.41;;;-1.81;79.82
967;BME280;56108;48.730;9.304;2023-04-04T03:31:39;98261.88;;;-1.82;80.30
967;BME280;56108;48.730;9.304;2023-04-04T03:33:47;98254.16;;;-1.92;80.69
967;BME280;56108;48.730;9.304;2023-04-04T03:35:55;98262.03;;;-1.99;81.19
967;BME280;56108;48.730;9.304;2023-04-04T03:38:03;98263.81;;;-2.03;81.27
967;BME280;56108;48.730;9.304;2023-04-04T03:40:12;98262.94;;;-2.03;81.40
967;BME280;56108;48.730;9.304;2023-04-04T03:42:23;98261.22;;;-2.03;81.35
967;BME280;56108;48.730;9.304;2023-04-04T03:44:31;98261.19;;;-2.04;81.52
967;BME280;56108;48.730;9.304;2023-04-04T03:46:41;98269.88;;;-2.01;81.67
967;BME280;56108;48.730;9.304;2023-04-04T03:48:50;98259.41;;;-1.98;81.55
967;BME280;56108;48.730;9.304;2023-04-04T03:50:58;98257.75;;;-2.06;81.82
967;BME280;56108;48.730;9.304;2023-04-04T03:53:07;98262.88;;;-1.99;81.17
967;BME280;56108;48.730;9.304;2023-04-04T03:55:15;98264.63;;;-1.99;81.23
967;BME280;56108;48.730;9.304;2023-04-04T03:57:26;98258.59;;;-2.04;81.80
967;BME280;56108;48.730;9.304;2023-04-04T03:59:34;98258.66;;;-2.12;81.95
967;BME280;56108;48.730;9.304;2023-04-04T04:01:42;98254.28;;;-2.10;82.00
967;BME280;56108;48.730;9.304;2023-04-04T04:03:50;98260.44;;;-2.16;82.48
967;BME280;56108;48.730;9.304;2023-04-04T04:05:58;98263.06;;;-2.17;82.69
967;BME280;56108;48.730;9.304;2023-04-04T04:08:09;98259.59;;;-2.19;82.83
967;BME280;56108;48.730;9.304;2023-04-04T04:10:17;98258.69;;;-2.15;82.30
967;BME280;56108;48.730;9.304;2023-04-04T04:12:28;98262.19;;;-2.18;82.36
967;BME280;56108;48.730;9.304;2023-04-04T04:14:35;98265.63;;;-2.13;81.60
967;BME280;56108;48.730;9.304;2023-04-04T04:16:45;98262.13;;;-2.12;81.31
967;BME280;56108;48.730;9.304;2023-04-04T04:18:57;98260.34;;;-2.03;80.78
967;BME280;56108;48.730;9.304;2023-04-04T04:21:14;98263.88;;;-2.11;81.40
967;BME280;56108;48.730;9.304;2023-04-04T04:23:23;98261.34;;;-2.21;81.73
967;BME280;56108;48.730;9.304;2023-04-04T04:25:31;98262.97;;;-2.10;80.54
967;BME280;56108;48.730;9.304;2023-04-04T04:27:53;98260.44;;;-2.17;81.13
967;BME280;56108;48.730;9.304;2023-04-04T04:30:05;98255.19;;;-2.14;80.80
967;BME280;56108;48.730;9.304;2023-04-04T04:32:18;98265.63;;;-2.14;80.76
967;BME280;56108;48.730;9.304;2023-04-04T04:34:29;98265.63;;;-2.16;81.12
967;BME280;56108;48.730;9.304;2023-04-04T04:36:37;98264.03;;;-2.29;81.48
967;BME280;56108;48.730;9.304;2023-04-04T04:39:01;98259.72;;;-2.34;82.50
967;BME280;56108;48.730;9.304;2023-04-04T04:41:14;98261.50;;;-2.40;82.47
967;BME280;56108;48.730;9.304;2023-04-04T04:43:28;98265.84;;;-2.42;82.53
967;BME280;56108;48.730;9.304;2023-04-04T04:45:37;98266.69;;;-2.38;82.13
967;BME280;56108;48.730;9.304;2023-04-04T04:47:46;98277.03;;;-2.26;81.05
967;BME280;56108;48.730;9.304;2023-04-04T04:49:56;98276.97;;;-2.18;80.02
967;BME280;56108;48.730;9.304;2023-04-04T04:52:13;98275.19;;;-2.15;79.85
967;BME280;56108;48.730;9.304;2023-04-04T04:54:23;98275.25;;;-2.19;79.89
967;BME280;56108;48.730;9.304;2023-04-04T04:56:32;98275.25;;;-2.19;79.53
967;BME280;56108;48.730;9.304;2023-04-04T04:58:48;98276.06;;;-2.16;79.39
967;BME280;56108;48.730;9.304;2023-04-04T05:00:59;98270.81;;;-2.08;78.92
967;BME280;56108;48.730;9.304;2023-04-04T05:03:14;98276.00;;;-2.03;78.67
967;BME280;56108;48.730;9.304;2023-04-04T05:05:27;98283.78;;;-2.00;78.37
967;BME280;56108;48.730;9.304;2023-04-04T05:07:43;98274.22;;;-1.98;77.79
967;BME280;56108;48.730;9.304;2023-04-04T05:09:52;98285.50;;;-2.01;78.11
967;BME280;56108;48.730;9.304;2023-04-04T05:12:00;98289.94;;;-2.07;78.54
967;BME280;56108;48.730;9.304;2023-04-04T05:14:19;98290.72;;;-1.98;77.81
967;BME280;56108;48.730;9.304;2023-04-04T05:16:31;98286.41;;;-2.02;77.88
967;BME280;56108;48.730;9.304;2023-04-04T05:18:40;98286.34;;;-1.96;77.32
967;BME280;56108;48.730;9.304;2023-04-04T05:20:52;98291.53;;;-1.93;77.20
967;BME280;56108;48.730;9.304;2023-04-04T05:23:04;98287.09;;;-1.81;76.19
967;BME280;56108;48.730;9.304;2023-04-04T05:25:16;98287.97;;;-1.81;76.21
967;BME280;56108;48.730;9.304;2023-04-04T05:27:24;98285.13;;;-1.60;75.99
967;BME280;56108;48.730;9.304;2023-04-04T05:29:40;98285.53;;;-1.16;73.30
967;BME280;56108;48.730;9.304;2023-04-04T05:31:49;98288.16;;;-1.18;72.60
967;BME280;56108;48.730;9.304;2023-04-04T05:33:59;98289.69;;;-1.00;71.42
967;BME280;56108;48.730;9.304;2023-04-04T05:36:13;98292.16;;;-0.89;71.41
967;BME280;56108;48.730;9.304;2023-04-04T05:38:27;98298.25;;;-0.87;70.56
967;BME280;56108;48.730;9.304;2023-04-04T05:40:37;98296.34;;;-0.76;69.60
967;BME280;56108;48.730;9.304;2023-04-04T05:42:53;98300.84;;;-0.87;70.76
967;BME280;56108;48.730;9.304;2023-04-04T05:45:12;98292.31;;;-1.01;70.81
967;BME280;56108;48.730;9.304;2023-04-04T05:47:20;98299.31;;;-1.03;71.24
967;BME280;56108;48.730;9.304;2023-04-04T05:49:29;98304.66;;;-1.13;71.69
967;BME280;56108;48.730;9.304;2023-04-04T05:51:38;98298.56;;;-1.13;71.46
967;BME280;56108;48.730;9.304;2023-04-04T05:53:50;98303.72;;;-1.10;71.32
967;BME280;56108;48.730;9.304;2023-04-04T05:56:03;98301.94;;;-1.05;70.81
967;BME280;56108;48.730;9.304;2023-04-04T05:58:11;98300.94;;;-0.93;70.41
967;BME280;56108;48.730;9.304;2023-04-04T06:00:30;98303.41;;;-0.83;69.77
967;BME280;56108;48.730;9.304;2023-04-04T06:02:45;98307.50;;;-0.62;68.68
967;BME280;56108;48.730;9.304;2023-04-04T06:04:56;98316.38;;;-0.13;67.60
967;BME280;56108;48.730;9.304;2023-04-04T06:07:10;98322.97;;;0.62;63.80
967;BME280;56108;48.730;9.304;2023-04-04T06:09:18;98332.69;;;1.45;59.46
967;BME280;56108;48.730;9.304;2023-04-04T06:11:26;98335.41;;;2.18;57.71
967;BME280;56108;48.730;9.304;2023-04-04T06:13:41;98345.28;;;3.10;53.59
967;BME280;56108;48.730;9.304;2023-04-04T06:15:55;98348.16;;;3.32;53.20
967;BME280;56108;48.730;9.304;2023-04-04T06:18:06;98350.84;;;3.31;52.07
967;BME280;56108;48.730;9.304;2023-04-04T06:20:17;98360.72;;;3.83;51.27
967;BME280;56108;48.730;9.304;2023-04-04T06:22:30;98359.56;;;4.20;49.92
967;BME280;56108;48.730;9.304;2023-04-04T06:24:39;98371.63;;;5.79;46.24
967;BME280;56108;48.730;9.304;2023-04-04T06:26:49;98382.34;;;6.21;44.86
967;BME280;56108;48.730;9.304;2023-04-04T06:29:01;98372.94;;;6.58;43.46
967;BME280;56108;48.730;9.304;2023-04-04T06:31:18;98386.25;;;7.39;42.08
967;BME280;56108;48.730;9.304;2023-04-04T06:33:27;98388.38;;;6.90;42.43
967;BME280;56108;48.730;9.304;2023-04-04T06:35:35;98379.69;;;6.87;42.02
967;BME280;56108;48.730;9.304;2023-04-04T06:37:45;98381.41;;;8.07;41.08
967;BME280;56108;48.730;9.304;2023-04-04T06:40:00;98395.34;;;7.73;39.53
967;BME280;56108;48.730;9.304;2023-04-04T06:42:10;98387.16;;;7.58;40.40
967;BME280;56108;48.730;9.304;2023-04-04T06:44:24;98392.53;;;9.57;37.01
967;BME280;56108;48.730;9.304;2023-04-04T06:46:36;98402.28;;;9.74;35.82
967;BME280;56108;48.730;9.304;2023-04-04T06:48:45;98408.94;;;8.78;36.92
967;BME280;56108;48.730;9.304;2023-04-04T06:50:54;98408.75;;;10.66;35.16
967;BME280;56108;48.730;9.304;2023-04-04T06:53:03;98419.19;;;10.22;32.71
967;BME280;56108;48.730;9.304;2023-04-04T06:55:12;98397.72;;;8.54;37.07
967;BME280;56108;48.730;9.304;2023-04-04T06:57:20;98380.84;;;10.73;34.21
967;BME280;56108;48.730;9.304;2023-04-04T06:59:29;98361.00;;;9.33;34.82
967;BME280;56108;48.730;9.304;2023-04-04T07:01:39;98362.47;;;7.77;37.08
967;BME280;56108;48.730;9.304;2023-04-04T07:03:51;98356.81;;;8.77;36.71
967;BME280;56108;48.730;9.304;2023-04-04T07:06:01;98357.44;;;9.00;35.30
967;BME280;56108;48.730;9.304;2023-04-04T07:08:09;98355.84;;;7.48;37.69
967;BME280;56108;48.730;9.304;2023-04-04T07:10:18;98354.69;;;8.84;35.93
967;BME280;56108;48.730;9.304;2023-04-04T07:12:26;98350.25;;;6.74;37.76
967;BME280;56108;48.730;9.304;2023-04-04T07:14:34;98346.03;;;7.31;38.93
967;BME280;56108;48.730;9.304;2023-04-04T07:16:45;98351.16;;;6.93;38.32
967;BME280;56108;48.730;9.304;2023-04-04T07:18:53;98359.97;;;6.94;38.44
967;BME280;56108;48.730;9.304;2023-04-04T07:21:01;98351.38;;;7.69;37.81
967;BME280;56108;48.730;9.304;2023-04-04T07:23:09;98358.78;;;8.00;37.55
967;BME280;56108;48.730;9.304;2023-04-04T07:25:17;98355.38;;;7.58;38.22
967;BME280;56108;48.730;9.304;2023-04-04T07:27:25;98360.66;;;8.34;36.64
967;BME280;56108;48.730;9.304;2023-04-04T07:29:33;98355.53;;;7.35;37.93
967;BME280;56108;48.730;9.304;2023-04-04T07:31:41;98359.00;;;7.56;38.41
967;BME280;56108;48.730;9.304;2023-04-04T07:33:52;98346.97;;;7.49;37.09
967;BME280;56108;48.730;9.304;2023-04-04T07:36:00;98360.47;;;7.63;37.38
967;BME280;56108;48.730;9.304;2023-04-04T07:38:09;98350.81;;;5.71;40.42
967;BME280;56108;48.730;9.304;2023-04-04T07:40:17;98342.06;;;5.22;42.51
967;BME280;56108;48.730;9.304;2023-04-04T07:42:25;98343.81;;;4.18;44.89
967;BME280;56108;48.730;9.304;2023-04-04T07:44:35;98347.28;;;3.91;45.31
967;BME280;56108;48.730;9.304;2023-04-04T07:46:42;98333.97;;;3.38;46.79
967;BME280;56108;48.730;9.304;2023-04-04T07:49:05;98333.53;;;3.53;47.56
967;BME280;56108;48.730;9.304;2023-04-04T07:51:13;98329.84;;;3.29;48.02
967;BME280;56108;48.730;9.304;2023-04-04T07:53:22;98318.53;;;2.95;48.59
967;BME280;56108;48.730;9.304;2023-04-04T07:55:29;98320.72;;;2.79;50.45
967;BME280;56108;48.730;9.304;2023-04-04T07:57:38;98320.38;;;2.58;50.57
967;BME280;56108;48.730;9.304;2023-04-04T07:59:46;98323.81;;;2.60;49.96
967;BME280;56108;48.730;9.304;2023-04-04T08:01:54;98322.47;;;2.46;51.22
967;BME280;56108;48.730;9.304;2023-04-04T08:04:05;98315.19;;;2.21;51.41
967;BME280;56108;48.730;9.304;2023-04-04T08:06:13;98321.88;;;1.97;51.64
967;BME280;56108;48.730;9.304;2023-04-04T08:08:21;98318.72;;;2.20;52.71
967;BME280;56108;48.730;9.304;2023-04-04T08:10:28;98318.38;;;2.34;52.49
967;BME280;56108;48.730;9.304;2023-04-04T08:12:37;98313.13;;;2.34;52.08
967;BME280;56108;48.730;9.304;2023-04-04T08:14:45;98310.50;;;2.34;52.09
967;BME280;56108;48.730;9.304;2023-04-04T08:16:53;98312.13;;;2.38;52.81
967;BME280;56108;48.730;9.304;2023-04-04T08:19:01;98316.53;;;2.38;52.39
967;BME280;56108;48.730;9.304;2023-04-04T08:21:13;98315.59;;;2.40;52.04
967;BME280;56108;48.730;9.304;2023-04-04T08:23:21;98318.34;;;2.35;51.88
967;BME280;56108;48.730;9.304;2023-04-04T08:25:30;98314.59;;;2.44;52.14
967;BME280;56108;48.730;9.304;2023-04-04T08:27:39;98308.84;;;2.64;52.64
967;BME280;56108;48.730;9.304;2023-04-04T08:29:48;98315.06;;;2.61;51.54
967;BME280;56108;48.730;9.304;2023-04-04T08:31:56;98313.91;;;2.38;52.01
967;BME280;56108;48.730;9.304;2023-04-04T08:34:05;98311.13;;;2.76;51.51
967;BME280;56108;48.730;9.304;2023-04-04T08:36:15;98312.81;;;3.11;51.38
967;BME280;56108;48.730;9.304;2023-04-04T08:38:23;98318.84;;;3.15;51.14
967;BME280;56108;48.730;9.304;2023-04-04T08:40:31;98313.50;;;3.18;50.31
967;BME280;56108;48.730;9.304;2023-04-04T08:42:40;98319.34;;;3.29;50.16
967;BME280;56108;48.730;9.304;2023-04-04T08:44:52;98313.34;;;2.92;50.73
967;BME280;56108;48.730;9.304;2023-04-04T08:47:02;98316.03;;;2.90;50.03
967;BME280;56108;48.730;9.304;2023-04-04T08:49:13;98322.69;;;2.71;49.87
967;BME280;56108;48.730;9.304;2023-04-04T08:51:29;98317.69;;;2.94;50.52
967;BME280;56108;48.730;9.304;2023-04-04T08:53:38;98319.13;;;2.73;49.84
967;BME280;56108;48.730;9.304;2023-04-04T08:55:47;98312.84;;;2.79;50.26
967;BME280;56108;48.730;9.304;2023-04-04T08:57:55;98319.28;;;3.00;49.34
967;BME280;56108;48.730;9.304;2023-04-04T09:00:04;98317.56;;;3.30;50.04
967;BME280;56108;48.730;9.304;2023-04-04T09:02:22;98319.78;;;3.44;49.64
967;BME280;56108;48.730;9.304;2023-04-04T09:04:31;98317.88;;;3.49;48.58
967;BME280;56108;48.730;9.304;2023-04-04T09:06:43;98323.84;;;3.55;48.06
967;BME280;56108;48.730;9.304;2023-04-04T09:08:51;98324.78;;;3.22;48.07
967;BME280;56108;48.730;9.304;2023-04-04T09:11:02;98327.06;;;3.34;48.26
967;BME280;56108;48.730;9.304;2023-04-04T09:13:11;98326.19;;;3.35;47.60
967;BME280;56108;48.730;9.304;2023-04-04T09:15:20;98320.97;;;3.63;48.70
967;BME280;56108;48.730;9.304;2023-04-04T09:17:29;98316.44;;;4.23;48.36
967;BME280;56108;48.730;9.304;2023-04-04T09:19:37;98330.09;;;4.62;45.97
967;BME280;56108;48.730;9.304;2023-04-04T09:21:48;98333.84;;;4.28;45.53
967;BME280;56108;48.730;9.304;2023-04-04T09:23:57;98333.31;;;3.89;46.69
967;BME280;56108;48.730;9.304;2023-04-04T09:26:06;98326.53;;;3.82;47.97
967;BME280;56108;48.730;9.304;2023-04-04T09:28:16;98334.44;;;4.63;46.41
967;BME280;56108;48.730;9.304;2023-04-04T09:30:25;98329.72;;;5.22;45.22
967;BME280;56108;48.730;9.304;2023-04-04T09:32:33;98326.47;;;5.39;44.51
967;BME280;56108;48.730;9.304;2023-04-04T09:34:42;98336.25;;;5.36;43.85
967;BME280;56108;48.730;9.304;2023-04-04T09:36:53;98341.59;;;5.58;42.22
967;BME280;56108;48.730;9.304;2023-04-04T09:39:02;98331.47;;;5.70;43.35
967;BME280;56108;48.730;9.304;2023-04-04T09:41:13;98345.72;;;6.34;42.19
967;BME280;56108;48.730;9.304;2023-04-04T09:43:23;98345.03;;;5.36;42.37
967;BME280;56108;48.730;9.304;2023-04-04T09:45:37;98341.78;;;4.53;44.48
967;BME280;56108;48.730;9.304;2023-04-04T09:47:46;98332.19;;;5.50;43.59
967;BME280;56108;48.730;9.304;2023-04-04T09:49:56;98340.13;;;7.82;39.71
967;BME280;56108;48.730;9.304;2023-04-04T09:52:16;98352.59;;;9.58;35.56
967;BME280;56108;48.730;9.304;2023-04-04T09:54:24;98355.59;;;8.66;36.41
967;BME280;56108;48.730;9.304;2023-04-04T09:56:35;98360.38;;;9.46;34.42
967;BME280;56108;48.730;9.304;2023-04-04T09:58:47;98353.03;;;10.63;33.20
967;BME280;56108;48.730;9.304;2023-04-04T10:01:08;98352.03;;;9.69;35.32
967;BME280;56108;48.730;9.304;2023-04-04T10:03:17;98353.22;;;8.78;35.18
967;BME280;56108;48.730;9.304;2023-04-04T10:05:26;98348.66;;;9.99;34.04
967;BME280;56108;48.730;9.304;2023-04-04T10:07:39;98355.16;;;8.92;34.80
967;BME280;56108;48.730;9.304;2023-04-04T10:09:48;98360.63;;;9.06;34.54
967;BME280;56108;48.730;9.304;2023-04-04T10:12:07;98350.59;;;9.95;34.96
967;BME280;56108;48.730;9.304;2023-04-04T10:14:15;98350.69;;;8.93;35.20
967;BME280;56108;48.730;9.304;2023-04-04T10:16:23;98351.75;;;8.35;35.34
967;BME280;56108;48.730;9.304;2023-04-04T10:18:33;98342.47;;;8.26;37.52
967;BME280;56108;48.730;9.304;2023-04-04T10:20:43;98349.13;;;8.71;35.88
967;BME280;56108;48.730;9.304;2023-04-04T10:22:54;98341.34;;;8.13;36.54
967;BME280;56108;48.730;9.304;2023-04-04T10:25:02;98341.72;;;7.28;37.79
967;BME280;56108;48.730;9.304;2023-04-04T10:27:10;98340.00;;;7.27;37.64
967;BME280;56108;48.730;9.304;2023-04-04T10:29:18;98337.25;;;8.06;36.84
967;BME280;56108;48.730;9.304;2023-04-04T10:31:26;98341.16;;;8.35;37.33
967;BME280;56108;48.730;9.304;2023-04-04T10:33:47;98331.84;;;6.71;38.65
967;BME280;56108;48.730;9.304;2023-04-04T10:36:01;98326.09;;;7.02;39.61
967;BME280;56108;48.730;9.304;2023-04-04T10:38:13;98328.09;;;7.17;39.79
967;BME280;56108;48.730;9.304;2023-04-04T10:40:24;98327.56;;;7.48;38.85
967;BME280;56108;48.730;9.304;2023-04-04T10:42:37;98332.66;;;7.53;37.99
967;BME280;56108;48.730;9.304;2023-04-04T10:44:46;98325.16;;;7.63;38.49
967;BME280;56108;48.730;9.304;2023-04-04T10:46:56;98321.88;;;6.98;38.33
967;BME280;56108;48.730;9.304;2023-04-04T10:49:05;98312.56;;;6.69;39.44
967;BME280;56108;48.730;9.304;2023-04-04T10:51:14;98311.00;;;6.43;40.10
967;BME280;56108;48.730;9.304;2023-04-04T10:53:26;98312.16;;;6.14;40.52
967;BME280;56108;48.730;9.304;2023-04-04T10:55:34;98322.13;;;7.12;38.73
967;BME280;56108;48.730;9.304;2023-04-04T10:57:46;98322.13;;;6.71;38.82
967;BME280;56108;48.730;9.304;2023-04-04T10:59:59;98313.69;;;7.43;39.01
967;BME280;56108;48.730;9.304;2023-04-04T11:02:08;98308.16;;;8.23;38.38
967;BME280;56108;48.730;9.304;2023-04-04T11:04:18;98309.47;;;7.58;38.44
967;BME280;56108;48.730;9.304;2023-04-04T11:07:11;98300.34;;;7.26;40.18
967;BME280;56108;48.730;9.304;2023-04-04T11:12:12;98287.06;;;6.46;41.57
967;BME280;56108;48.730;9.304;2023-04-04T11:14:27;98298.28;;;6.09;42.38
967;BME280;56108;48.730;9.304;2023-04-04T11:16:44;98294.00;;;5.83;41.54
967;BME280;56108;48.730;9.304;2023-04-04T11:18:58;98288.66;;;5.39;41.23
967;BME280;56108;48.730;9.304;2023-04-04T11:21:07;98285.22;;;5.82;42.66
967;BME280;56108;48.730;9.304;2023-04-04T11:23:17;98285.31;;;6.24;41.38
967;BME280;56108;48.730;9.304;2023-04-04T11:25:34;98290.31;;;6.52;41.47
967;BME280;56108;48.730;9.304;2023-04-04T11:27:47;98284.28;;;6.07;40.91
967;BME280;56108;48.730;9.304;2023-04-04T11:29:57;98299.31;;;6.05;42.31
967;BME280;56108;48.730;9.304;2023-04-04T11:32:32;98298.09;;;5.90;42.05
967;BME280;56108;48.730;9.304;2023-04-04T11:34:41;98289.94;;;5.74;42.23
967;BME280;56108;48.730;9.304;2023-04-04T11:36:52;98287.94;;;5.57;42.49
967;BME280;56108;48.730;9.304;2023-04-04T11:39:03;98287.25;;;5.75;41.96
967;BME280;56108;48.730;9.304;2023-04-04T11:43:22;98280.28;;;6.18;41.90
967;BME280;56108;48.730;9.304;2023-04-04T11:45:30;98284.03;;;6.13;40.67
967;BME280;56108;48.730;9.304;2023-04-04T11:47:46;98287.50;;;6.35;40.51
967;BME280;56108;48.730;9.304;2023-04-04T11:49:55;98276.97;;;6.56;42.10
967;BME280;56108;48.730;9.304;2023-04-04T11:52:04;98282.59;;;6.48;40.38
967;BME280;56108;48.730;9.304;2023-04-04T11:54:13;98279.00;;;6.07;41.20
967;BME280;56108;48.730;9.304;2023-04-04T11:56:22;98272.34;;;6.18;41.39
967;BME280;56108;48.730;9.304;2023-04-04T11:58:35;98272.84;;;6.28;41.76
967;BME280;56108;48.730;9.304;2023-04-04T12:00:43;98272.81;;;6.70;42.00